Saturday, August 2, 2014, 4:33 AM EDT

KSHD, Staunton / Shenandoah

Location: Weyers Cave, VA, United States Lat: 38.267
Local Time: 4:33 AM EDT ( 8:33 GMT) Lon: -78.9
Time Zone: US/Eastern Elev: 1200 ft

Show me the last for .
Show Decoded

2014-08-02 04:15 METAR KSHD 020815Z AUTO 00000KT 10SM CLR 17/15 A3016 RMK AO2 T01680147 =
2014-08-02 03:55 METAR KSHD 020755Z AUTO 34003KT 10SM CLR 17/15 A3016 RMK AO2 T01700148 =
2014-08-02 03:15 METAR KSHD 020715Z AUTO 00000KT 10SM OVC090 18/15 A3017 RMK AO2 T01750147 =
2014-08-02 02:55 METAR KSHD 020655Z AUTO 00000KT 10SM BKN033 OVC090 18/15 A3018 RMK AO2 T01770150
                 =
2014-08-02 02:35 METAR KSHD 020635Z AUTO 00000KT 10SM OVC033 18/15 A3018 RMK AO2 T01780148 =
2014-08-02 02:15 METAR KSHD 020615Z AUTO 00000KT 10SM OVC033 18/15 A3019 RMK AO2 LTG DSNT W
                 T01780147 =
2014-08-02 01:55 METAR KSHD 020555Z AUTO 00000KT 10SM BKN033 OVC041 18/15 A3020 RMK AO2 T01790146
                 10215 20178 402390178 =
2014-08-02 01:35 METAR KSHD 020535Z AUTO 00000KT 10SM BKN031 OVC041 18/14 A3020 RMK AO2 T01790142
                 =
2014-08-02 01:15 METAR KSHD 020515Z AUTO 00000KT 10SM OVC027 18/14 A3020 RMK AO2 T01790141 =
2014-08-02 00:55 METAR KSHD 020455Z AUTO 00000KT 10SM SCT017 OVC023 18/14 A3020 RMK AO2 T01800142
                 =
2014-08-02 00:35 METAR KSHD 020435Z AUTO 16003KT 10SM BKN017 OVC022 18/14 A3020 RMK AO2 T01810138
                 =
2014-08-02 00:15 METAR KSHD 020415Z AUTO 15008KT 10SM OVC016 18/14 A3020 RMK AO2 T01830141 =
2014-08-01 23:55 METAR KSHD 020355Z AUTO 13005KT 10SM OVC014 19/16 A3020 RMK AO2 LTG DSNT S
                 T01850156 =
2014-08-01 23:35 METAR KSHD 020335Z AUTO 12005KT 7SM -DZ BKN012 BKN020 OVC025 19/17 A3020 RMK AO2
                 T01900166 =
2014-08-01 23:15 METAR KSHD 020315Z AUTO 16006KT 10SM -RA SCT014 SCT021 OVC028 19/17 A3020 RMK
                 AO2 T01930167 =
2014-08-01 22:35 METAR KSHD 020235Z AUTO 00000KT 10SM SCT039 BKN048 BKN070 19/17 A3019 RMK AO2
                 T01900166 =
2014-08-01 22:15 METAR KSHD 020215Z AUTO 00000KT 10SM SCT048 SCT070 SCT090 19/16 A3020 RMK AO2
                 T01890163 =
2014-08-01 21:55 METAR KSHD 020155Z AUTO 00000KT 10SM SCT048 19/17 A3019 RMK AO2 T01930165 =
2014-08-01 21:35 METAR KSHD 020135Z AUTO 00000KT 10SM SCT034 20/16 A3019 RMK AO2 T01990162 =
2014-08-01 21:15 METAR KSHD 020115Z AUTO 00000KT 10SM SCT036 20/16 A3019 RMK AO2 T01980162 =
2014-08-01 20:55 METAR KSHD 020055Z AUTO 00000KT 10SM CLR 21/16 A3019 RMK AO2 T02050161 =
2014-08-01 20:35 METAR KSHD 020035Z AUTO 00000KT 10SM CLR 21/16 A3019 RMK AO2 T02100160 =
2014-08-01 20:15 METAR KSHD 020015Z AUTO 00000KT 10SM SCT033 BKN045 21/16 A3019 RMK AO2 T02120161
                 =
2014-08-01 19:55 METAR KSHD 012355Z AUTO 00000KT 10SM SCT033 SCT045 22/16 A3019 RMK AO2 T02150158
                 10239 20213 =
2014-08-01 18:35 METAR KSHD 012235Z AUTO 13004KT 10SM SCT085 22/15 A3019 RMK AO2 T02240150 =
2014-08-01 18:15 METAR KSHD 012215Z AUTO 11004KT 10SM CLR 23/15 A3019 RMK AO2 T02260151 =
2014-08-01 17:55 METAR KSHD 012155Z AUTO 13004KT 10SM SCT036 23/14 A3020 RMK AO2 T02280143 =
2014-08-01 17:35 METAR KSHD 012135Z AUTO 14005KT 10SM SCT095 23/15 A3020 RMK AO2 T02340153 =
2014-08-01 17:15 METAR KSHD 012115Z AUTO 14004KT 10SM SCT029 BKN046 OVC095 23/15 A3020 RMK AO2
                 T02320154 =
2014-08-01 16:55 METAR KSHD 012055Z AUTO 15006KT 10SM BKN031 BKN036 OVC049 23/16 A3020 RMK AO2
                 T02330156 =
2014-08-01 16:35 METAR KSHD 012035Z AUTO 13004KT 10SM SCT030 SCT035 BKN100 23/16 A3020 RMK AO2
                 T02320157 =
2014-08-01 16:15 METAR KSHD 012015Z AUTO 10004KT 10SM BKN100 24/16 A3020 RMK AO2 T02360162 =
2014-08-01 15:55 METAR KSHD 011955Z AUTO 00000KT 10SM SCT031 SCT040 OVC100 23/16 A3020 RMK AO2
                 T02320161 =
2014-08-01 15:35 METAR KSHD 011935Z AUTO 09003KT 10SM SCT021 BKN033 OVC090 23/16 A3021 RMK AO2
                 T02290164 =
2014-08-01 15:15 METAR KSHD 011915Z AUTO 01003KT 10SM BKN019 BKN025 OVC090 23/17 A3021 RMK AO2
                 T02300170 =
2014-08-01 14:35 METAR KSHD 011835Z AUTO 00000KT 10SM SCT016 BKN060 22/17 A3023 RMK AO2 LTG DSNT
                 SE T02180170 =
2014-08-01 14:15 METAR KSHD 011815Z AUTO 00000KT 10SM SCT016 BKN060 OVC100 22/17 A3023 RMK AO2
                 T02150171 =
2014-08-01 13:55 METAR KSHD 011755Z AUTO 00000KT 10SM SCT038 SCT060 OVC110 21/17 A3024 RMK AO2
                 60004 T02130172 10213 20191 =
2014-08-01 13:35 METAR KSHD 011735Z AUTO 00000KT 10SM SCT023 BKN033 OVC110 21/17 A3024 RMK AO2
                 T02100170 =
2014-08-01 13:15 METAR KSHD 011715Z AUTO 00000KT 10SM BKN025 OVC031 21/17 A3025 RMK AO2 T02100170
                 =
2014-08-01 12:55 METAR KSHD 011655Z AUTO 00000KT 10SM SCT015 BKN023 OVC034 21/17 A3024 RMK AO2
                 T02120172 =
2014-08-01 12:35 METAR KSHD 011635Z AUTO 00000KT 10SM BKN015 BKN025 OVC050 21/17 A3024 RMK AO2
                 T02090170 =
2014-08-01 12:15 METAR KSHD 011615Z AUTO 00000KT 10SM -RA SCT032 SCT043 OVC050 21/17 A3024 RMK
                 AO2 T02070170 =
2014-08-01 11:55 METAR KSHD 011555Z AUTO 00000KT 10SM RA SCT010 SCT029 OVC050 20/17 A3025 RMK AO2
                 T02030174 =
2014-08-01 11:35 METAR KSHD 011535Z AUTO 00000KT 10SM DZ OVC050 20/18 A3025 RMK AO2 T02030180 =
2014-08-01 11:15 METAR KSHD 011515Z AUTO 00000KT 10SM -RA OVC050 20/18 A3025 RMK AO2 T02000176 =
2014-08-01 10:55 METAR KSHD 011455Z AUTO 00000KT 10SM -DZ OVC050 20/18 A3025 RMK AO2 P0001 60004
                 T01990177 =
2014-08-01 10:35 METAR KSHD 011435Z AUTO 00000KT 7SM -RA OVC049 20/18 A3024 RMK AO2 LTG DSNT S
                 P0001 T01970177 =
2014-08-01 10:15 METAR KSHD 011415Z AUTO 00000KT 10SM DZ OVC049 20/18 A3024 RMK AO2 T01950175 =
2014-08-01 09:35 METAR KSHD 011335Z AUTO 25003KT 7SM -RA SCT039 OVC045 19/18 A3024 RMK AO2
                 T01930177 =
2014-08-01 09:15 METAR KSHD 011315Z AUTO 00000KT 7SM -RA SCT039 OVC060 20/18 A3023 RMK AO2
                 T01950178 =
2014-08-01 08:55 METAR KSHD 011255Z AUTO 00000KT 7SM SCT046 OVC050 19/18 A3023 RMK AO2 P0003
                 T01930177 =
2014-08-01 08:35 METAR KSHD 011235Z AUTO 00000KT 7SM SCT043 BKN050 OVC065 19/18 A3023 RMK AO2
                 P0003 T01930176 =
2014-08-01 08:15 METAR KSHD 011215Z AUTO 00000KT 5SM RA OVC050 19/17 A3023 RMK AO2 P0001
                 T01920174 =
2014-08-01 07:55 METAR KSHD 011155Z AUTO 18003KT 10SM -RA SCT036 BKN050 OVC070 20/17 A3022 RMK
                 AO2 T01950172 10202 20188 =
2014-08-01 07:15 METAR KSHD 011115Z AUTO 16005KT 10SM SCT036 BKN075 OVC110 20/17 A3021 RMK AO2
                 T01960170 =
2014-08-01 06:55 METAR KSHD 011055Z AUTO 17003KT 10SM SCT039 OVC049 20/17 A3021 RMK AO2 T01950171
                 =
2014-08-01 06:35 METAR KSHD 011035Z AUTO 15003KT 10SM RA BKN041 OVC047 19/17 A3020 RMK AO2
                 T01940169 =
2014-08-01 06:15 METAR KSHD 011015Z AUTO 00000KT 10SM SCT037 BKN045 OVC080 19/17 A3020 RMK AO2
                 T01900167 =
2014-08-01 05:55 METAR KSHD 010955Z AUTO 00000KT 10SM SCT035 OVC075 19/17 A3019 RMK AO2 T01900166
                 =
2014-08-01 05:35 METAR KSHD 010935Z AUTO 00000KT 10SM SCT037 OVC085 19/17 A3019 RMK AO2 T01930169
                 =
2014-08-01 05:15 METAR KSHD 010915Z AUTO 00000KT 10SM OVC085 19/17 A3018 RMK AO2 T01910168 =
2014-08-01 04:55 METAR KSHD 010855Z AUTO 00000KT 10SM SCT039 OVC085 19/17 A3017 RMK AO2 T01880166
                 =
2014-08-01 04:35 METAR KSHD 010835Z AUTO 00000KT 10SM BKN039 OVC085 20/17 A3018 RMK AO2 T01950167
                 =

Support USWX by starting your Amazon purchase here.